sensor_id;sensor_type;location;lat;lon;timestamp;pressure;altitude;pressure_sealevel;temperature;humidity
37066;BME280;22981;43.080;25.550;2023-03-14T00:02:17;99864.85;;;4.24;48.70
37066;BME280;22981;43.080;25.550;2023-03-14T00:04:44;99865.19;;;4.13;49.06
37066;BME280;22981;43.080;25.550;2023-03-14T00:07:12;99862.23;;;4.08;49.45
37066;BME280;22981;43.080;25.550;2023-03-14T00:09:40;99853.96;;;4.03;49.67
37066;BME280;22981;43.080;25.550;2023-03-14T00:12:08;99855.28;;;4.03;49.83
37066;BME280;22981;43.080;25.550;2023-03-14T00:14:36;99850.63;;;4.05;49.81
37066;BME280;22981;43.080;25.550;2023-03-14T00:17:03;99852.12;;;4.07;49.74
37066;BME280;22981;43.080;25.550;2023-03-14T00:19:31;99855.75;;;4.10;49.72
37066;BME280;22981;43.080;25.550;2023-03-14T00:21:58;99851.64;;;3.95;49.96
37066;BME280;22981;43.080;25.550;2023-03-14T00:24:26;99840.55;;;3.80;50.38
37066;BME280;22981;43.080;25.550;2023-03-14T00:26:54;99834.28;;;3.56;50.83
37066;BME280;22981;43.080;25.550;2023-03-14T00:29:21;99834.77;;;3.35;51.36
37066;BME280;22981;43.080;25.550;2023-03-14T00:31:49;99833.41;;;3.15;51.82
37066;BME280;22981;43.080;25.550;2023-03-14T00:34:16;99833.05;;;3.01;52.24
37066;BME280;22981;43.080;25.550;2023-03-14T00:36:44;99830.22;;;2.99;52.48
37066;BME280;22981;43.080;25.550;2023-03-14T00:39:12;99810.85;;;2.86;52.63
37066;BME280;22981;43.080;25.550;2023-03-14T00:41:40;99821.31;;;2.96;52.71
37066;BME280;22981;43.080;25.550;2023-03-14T00:44:07;99809.23;;;2.97;52.74
37066;BME280;22981;43.080;25.550;2023-03-14T00:46:35;99811.37;;;2.94;52.83
37066;BME280;22981;43.080;25.550;2023-03-14T00:49:02;99809.52;;;2.82;52.97
37066;BME280;22981;43.080;25.550;2023-03-14T00:51:30;99801.42;;;2.75;53.14
37066;BME280;22981;43.080;25.550;2023-03-14T00:53:58;99796.44;;;2.72;53.29
37066;BME280;22981;43.080;25.550;2023-03-14T00:56:26;99790.64;;;2.69;53.36
37066;BME280;22981;43.080;25.550;2023-03-14T00:58:55;99797.42;;;2.67;53.46
37066;BME280;22981;43.080;25.550;2023-03-14T01:01:23;99795.42;;;2.57;53.62
37066;BME280;22981;43.080;25.550;2023-03-14T01:03:52;99791.42;;;2.49;53.87
37066;BME280;22981;43.080;25.550;2023-03-14T01:06:23;99789.27;;;2.53;53.89
37066;BME280;22981;43.080;25.550;2023-03-14T01:08:51;99787.80;;;2.54;53.91
37066;BME280;22981;43.080;25.550;2023-03-14T01:11:22;99787.75;;;2.42;53.96
37066;BME280;22981;43.080;25.550;2023-03-14T01:13:50;99787.84;;;2.24;54.28
37066;BME280;22981;43.080;25.550;2023-03-14T01:16:19;99781.55;;;2.21;54.50
37066;BME280;22981;43.080;25.550;2023-03-14T01:18:48;99784.36;;;2.19;54.61
37066;BME280;22981;43.080;25.550;2023-03-14T01:21:24;99780.89;;;2.19;54.68
37066;BME280;22981;43.080;25.550;2023-03-14T01:23:54;99779.90;;;2.20;54.68
37066;BME280;22981;43.080;25.550;2023-03-14T01:26:24;99778.04;;;2.12;54.77
37066;BME280;22981;43.080;25.550;2023-03-14T01:28:53;99782.97;;;2.07;55.02
37066;BME280;22981;43.080;25.550;2023-03-14T01:31:21;99780.33;;;2.07;55.17
37066;BME280;22981;43.080;25.550;2023-03-14T01:33:49;99775.89;;;2.12;55.11
37066;BME280;22981;43.080;25.550;2023-03-14T01:36:17;99773.08;;;2.13;55.18
37066;BME280;22981;43.080;25.550;2023-03-14T01:38:45;99777.71;;;2.11;55.18
37066;BME280;22981;43.080;25.550;2023-03-14T01:41:16;99773.52;;;2.00;55.37
37066;BME280;22981;43.080;25.550;2023-03-14T01:43:43;99771.67;;;1.97;55.48
37066;BME280;22981;43.080;25.550;2023-03-14T01:49:06;99758.66;;;1.99;55.50
37066;BME280;22981;43.080;25.550;2023-03-14T01:51:49;99752.70;;;1.93;55.47
37066;BME280;22981;43.080;25.550;2023-03-14T01:54:36;99752.84;;;1.92;55.54
37066;BME280;22981;43.080;25.550;2023-03-14T01:59:44;99756.26;;;1.80;55.72
37066;BME280;22981;43.080;25.550;2023-03-14T02:02:13;99750.79;;;1.78;55.84
37066;BME280;22981;43.080;25.550;2023-03-14T02:04:41;99751.75;;;1.72;55.97
37066;BME280;22981;43.080;25.550;2023-03-14T02:09:43;99744.33;;;1.72;56.17
37066;BME280;22981;43.080;25.550;2023-03-14T02:12:13;99750.59;;;1.75;56.10
37066;BME280;22981;43.080;25.550;2023-03-14T02:14:41;99746.80;;;1.73;56.13
37066;BME280;22981;43.080;25.550;2023-03-14T02:17:11;99744.83;;;1.71;56.21
37066;BME280;22981;43.080;25.550;2023-03-14T02:20:01;99747.58;;;1.66;56.31
37066;BME280;22981;43.080;25.550;2023-03-14T02:22:25;99748.53;;;1.61;56.44
37066;BME280;22981;43.080;25.550;2023-03-14T02:27:47;99741.41;;;1.57;56.58
37066;BME280;22981;43.080;25.550;2023-03-14T02:30:18;99742.44;;;1.60;56.50
37066;BME280;22981;43.080;25.550;2023-03-14T02:32:48;99741.72;;;1.54;56.65
37066;BME280;22981;43.080;25.550;2023-03-14T02:35:23;99745.31;;;1.49;56.83
37066;BME280;22981;43.080;25.550;2023-03-14T02:38:02;99741.19;;;1.46;56.95
37066;BME280;22981;43.080;25.550;2023-03-14T02:40:26;99742.16;;;1.41;57.08
37066;BME280;22981;43.080;25.550;2023-03-14T02:42:53;99747.89;;;1.41;57.11
37066;BME280;22981;43.080;25.550;2023-03-14T02:45:25;99747.86;;;1.37;57.26
37066;BME280;22981;43.080;25.550;2023-03-14T02:47:57;99750.96;;;1.32;57.38
37066;BME280;22981;43.080;25.550;2023-03-14T02:50:26;99750.27;;;1.26;57.59
37066;BME280;22981;43.080;25.550;2023-03-14T02:52:54;99750.43;;;1.24;57.68
37066;BME280;22981;43.080;25.550;2023-03-14T02:55:22;99750.92;;;1.28;57.68
37066;BME280;22981;43.080;25.550;2023-03-14T02:57:50;99749.15;;;1.33;57.60
37066;BME280;22981;43.080;25.550;2023-03-14T03:00:18;99752.77;;;1.32;57.60
37066;BME280;22981;43.080;25.550;2023-03-14T03:02:46;99757.84;;;1.25;57.71
37066;BME280;22981;43.080;25.550;2023-03-14T03:05:14;99757.61;;;1.18;57.85
37066;BME280;22981;43.080;25.550;2023-03-14T03:07:41;99759.19;;;1.11;57.98
37066;BME280;22981;43.080;25.550;2023-03-14T03:10:10;99760.59;;;1.02;58.18
37066;BME280;22981;43.080;25.550;2023-03-14T03:12:37;99769.45;;;0.96;58.41
37066;BME280;22981;43.080;25.550;2023-03-14T03:15:05;99772.20;;;0.91;58.55
37066;BME280;22981;43.080;25.550;2023-03-14T03:17:33;99770.89;;;0.91;58.61
37066;BME280;22981;43.080;25.550;2023-03-14T03:20:01;99773.61;;;0.99;58.57
37066;BME280;22981;43.080;25.550;2023-03-14T03:22:30;99769.03;;;1.05;58.44
37066;BME280;22981;43.080;25.550;2023-03-14T03:24:58;99772.05;;;1.10;58.37
37066;BME280;22981;43.080;25.550;2023-03-14T03:27:25;99776.86;;;1.15;58.28
37066;BME280;22981;43.080;25.550;2023-03-14T03:29:53;99772.94;;;1.19;58.25
37066;BME280;22981;43.080;25.550;2023-03-14T03:32:20;99775.05;;;1.15;58.22
37066;BME280;22981;43.080;25.550;2023-03-14T03:34:48;99773.94;;;1.00;58.36
37066;BME280;22981;43.080;25.550;2023-03-14T03:37:15;99776.95;;;0.87;58.67
37066;BME280;22981;43.080;25.550;2023-03-14T03:39:43;99766.52;;;0.82;58.72
37066;BME280;22981;43.080;25.550;2023-03-14T03:42:11;99766.52;;;0.82;58.72
37066;BME280;22981;43.080;25.550;2023-03-14T03:44:38;99770.94;;;0.81;58.88
37066;BME280;22981;43.080;25.550;2023-03-14T03:47:06;99763.35;;;0.78;58.94
37066;BME280;22981;43.080;25.550;2023-03-14T03:49:33;99764.17;;;0.79;59.05
37066;BME280;22981;43.080;25.550;2023-03-14T03:52:01;99759.08;;;0.81;59.04
37066;BME280;22981;43.080;25.550;2023-03-14T03:54:29;99757.67;;;0.87;58.94
37066;BME280;22981;43.080;25.550;2023-03-14T03:56:56;99743.22;;;0.91;58.82
37066;BME280;22981;43.080;25.550;2023-03-14T03:59:24;99743.88;;;0.93;58.70
37066;BME280;22981;43.080;25.550;2023-03-14T04:01:51;99742.55;;;0.93;58.60
37066;BME280;22981;43.080;25.550;2023-03-14T04:04:19;99732.67;;;0.91;58.57
37066;BME280;22981;43.080;25.550;2023-03-14T04:06:47;99725.26;;;0.90;58.55
37066;BME280;22981;43.080;25.550;2023-03-14T04:09:14;99720.31;;;0.91;58.56
37066;BME280;22981;43.080;25.550;2023-03-14T04:11:42;99706.80;;;0.90;58.56
37066;BME280;22981;43.080;25.550;2023-03-14T04:14:09;99702.19;;;0.92;58.54
37066;BME280;22981;43.080;25.550;2023-03-14T04:16:37;99705.52;;;0.94;58.51
37066;BME280;22981;43.080;25.550;2023-03-14T04:19:05;99699.06;;;0.93;58.53
37066;BME280;22981;43.080;25.550;2023-03-14T04:21:32;99703.52;;;0.92;58.55
37066;BME280;22981;43.080;25.550;2023-03-14T04:24:00;99699.69;;;0.87;58.66
37066;BME280;22981;43.080;25.550;2023-03-14T04:26:27;99695.86;;;0.85;58.63
37066;BME280;22981;43.080;25.550;2023-03-14T04:28:55;99690.72;;;0.80;58.76
37066;BME280;22981;43.080;25.550;2023-03-14T04:31:22;99692.23;;;0.82;58.83
37066;BME280;22981;43.080;25.550;2023-03-14T04:33:50;99698.82;;;0.82;58.88
37066;BME280;22981;43.080;25.550;2023-03-14T04:36:18;99694.67;;;0.80;58.94
37066;BME280;22981;43.080;25.550;2023-03-14T04:38:46;99682.84;;;0.84;58.75
37066;BME280;22981;43.080;25.550;2023-03-14T04:41:13;99682.84;;;0.84;58.75
37066;BME280;22981;43.080;25.550;2023-03-14T04:43:41;99682.19;;;0.82;58.93
37066;BME280;22981;43.080;25.550;2023-03-14T04:46:08;99689.59;;;0.82;59.00
37066;BME280;22981;43.080;25.550;2023-03-14T04:48:36;99691.21;;;0.79;59.10
37066;BME280;22981;43.080;25.550;2023-03-14T04:51:04;99685.11;;;0.79;59.08
37066;BME280;22981;43.080;25.550;2023-03-14T04:53:32;99685.23;;;0.73;59.19
37066;BME280;22981;43.080;25.550;2023-03-14T04:56:00;99688.79;;;0.68;59.17
37066;BME280;22981;43.080;25.550;2023-03-14T04:58:28;99688.95;;;0.66;59.26
37066;BME280;22981;43.080;25.550;2023-03-14T05:00:56;99691.38;;;0.64;59.23
37066;BME280;22981;43.080;25.550;2023-03-14T05:03:25;99695.99;;;0.62;59.28
37066;BME280;22981;43.080;25.550;2023-03-14T05:05:52;99692.03;;;0.62;59.35
37066;BME280;22981;43.080;25.550;2023-03-14T05:08:21;99698.91;;;0.59;59.38
37066;BME280;22981;43.080;25.550;2023-03-14T05:10:53;99696.36;;;0.49;59.56
37066;BME280;22981;43.080;25.550;2023-03-14T05:13:21;99693.44;;;0.52;59.65
37066;BME280;22981;43.080;25.550;2023-03-14T05:15:49;99682.61;;;0.59;59.55
37066;BME280;22981;43.080;25.550;2023-03-14T05:18:21;99684.47;;;0.63;59.50
37066;BME280;22981;43.080;25.550;2023-03-14T05:20:51;99682.44;;;0.74;59.47
37066;BME280;22981;43.080;25.550;2023-03-14T05:23:18;99677.73;;;0.82;59.45
37066;BME280;22981;43.080;25.550;2023-03-14T05:25:46;99673.73;;;0.96;59.42
37066;BME280;22981;43.080;25.550;2023-03-14T05:28:13;99673.73;;;0.96;59.42
37066;BME280;22981;43.080;25.550;2023-03-14T05:30:41;99675.94;;;1.05;59.38
37066;BME280;22981;43.080;25.550;2023-03-14T05:33:08;99671.55;;;1.13;59.31
37066;BME280;22981;43.080;25.550;2023-03-14T05:35:36;99668.97;;;1.21;59.30
37066;BME280;22981;43.080;25.550;2023-03-14T05:38:03;99659.07;;;1.49;59.03
37066;BME280;22981;43.080;25.550;2023-03-14T05:40:31;99659.07;;;1.49;59.03
37066;BME280;22981;43.080;25.550;2023-03-14T05:42:58;99664.96;;;1.69;58.87
37066;BME280;22981;43.080;25.550;2023-03-14T05:45:26;99658.23;;;1.79;58.65
37066;BME280;22981;43.080;25.550;2023-03-14T05:47:54;99660.89;;;1.83;58.57
37066;BME280;22981;43.080;25.550;2023-03-14T05:50:21;99657.29;;;1.84;58.60
37066;BME280;22981;43.080;25.550;2023-03-14T05:52:49;99662.38;;;1.82;58.64
37066;BME280;22981;43.080;25.550;2023-03-14T05:55:16;99663.03;;;1.84;58.83
37066;BME280;22981;43.080;25.550;2023-03-14T05:57:44;99667.98;;;1.83;58.95
37066;BME280;22981;43.080;25.550;2023-03-14T06:00:12;99672.31;;;1.92;59.02
37066;BME280;22981;43.080;25.550;2023-03-14T06:02:39;99668.06;;;1.99;58.76
37066;BME280;22981;43.080;25.550;2023-03-14T06:05:08;99660.33;;;2.02;58.69
37066;BME280;22981;43.080;25.550;2023-03-14T06:07:38;99663.35;;;2.19;58.56
37066;BME280;22981;43.080;25.550;2023-03-14T06:10:08;99671.16;;;2.41;58.32
37066;BME280;22981;43.080;25.550;2023-03-14T06:12:35;99670.86;;;2.68;57.93
37066;BME280;22981;43.080;25.550;2023-03-14T06:15:04;99665.09;;;2.81;57.42
37066;BME280;22981;43.080;25.550;2023-03-14T06:17:33;99666.59;;;2.96;57.29
37066;BME280;22981;43.080;25.550;2023-03-14T06:20:00;99659.95;;;3.16;56.95
37066;BME280;22981;43.080;25.550;2023-03-14T06:22:28;99656.63;;;3.39;56.65
37066;BME280;22981;43.080;25.550;2023-03-14T06:24:56;99647.97;;;3.61;56.33
37066;BME280;22981;43.080;25.550;2023-03-14T06:27:23;99647.53;;;3.85;55.95
37066;BME280;22981;43.080;25.550;2023-03-14T06:29:51;99651.73;;;4.10;55.68
37066;BME280;22981;43.080;25.550;2023-03-14T06:32:18;99647.81;;;4.33;55.29
37066;BME280;22981;43.080;25.550;2023-03-14T06:34:47;99643.80;;;4.41;54.86
37066;BME280;22981;43.080;25.550;2023-03-14T06:37:14;99645.97;;;4.38;54.76
37066;BME280;22981;43.080;25.550;2023-03-14T06:39:42;99642.02;;;4.34;54.71
37066;BME280;22981;43.080;25.550;2023-03-14T06:42:10;99644.82;;;4.32;54.84
37066;BME280;22981;43.080;25.550;2023-03-14T06:44:38;99642.49;;;4.37;54.92
37066;BME280;22981;43.080;25.550;2023-03-14T06:47:05;99641.75;;;4.47;54.92
37066;BME280;22981;43.080;25.550;2023-03-14T06:49:33;99636.31;;;4.68;54.74
37066;BME280;22981;43.080;25.550;2023-03-14T06:52:01;99631.33;;;4.88;54.48
37066;BME280;22981;43.080;25.550;2023-03-14T06:54:28;99627.80;;;5.14;54.18
37066;BME280;22981;43.080;25.550;2023-03-14T06:56:56;99620.39;;;5.39;54.02
37066;BME280;22981;43.080;25.550;2023-03-14T06:59:23;99620.06;;;5.57;53.84
37066;BME280;22981;43.080;25.550;2023-03-14T07:01:51;99611.92;;;5.84;53.68
37066;BME280;22981;43.080;25.550;2023-03-14T07:04:18;99613.80;;;6.09;53.41
37066;BME280;22981;43.080;25.550;2023-03-14T07:06:46;99610.97;;;6.32;53.33
37066;BME280;22981;43.080;25.550;2023-03-14T07:09:14;99607.42;;;6.46;53.03
37066;BME280;22981;43.080;25.550;2023-03-14T07:11:43;99598.44;;;6.58;52.97
37066;BME280;22981;43.080;25.550;2023-03-14T07:14:11;99598.30;;;6.88;52.90
37066;BME280;22981;43.080;25.550;2023-03-14T07:16:39;99579.86;;;7.14;52.62
37066;BME280;22981;43.080;25.550;2023-03-14T07:19:06;99580.14;;;7.43;51.96
37066;BME280;22981;43.080;25.550;2023-03-14T07:21:34;99573.09;;;7.64;51.45
37066;BME280;22981;43.080;25.550;2023-03-14T07:24:02;99575.55;;;7.89;51.49
37066;BME280;22981;43.080;25.550;2023-03-14T07:26:29;99570.33;;;8.22;51.30
37066;BME280;22981;43.080;25.550;2023-03-14T07:28:57;99574.71;;;8.50;50.76
37066;BME280;22981;43.080;25.550;2023-03-14T07:31:24;99574.83;;;8.72;49.77
37066;BME280;22981;43.080;25.550;2023-03-14T07:33:52;99565.81;;;8.87;49.19
37066;BME280;22981;43.080;25.550;2023-03-14T07:36:19;99559.10;;;9.07;48.88
37066;BME280;22981;43.080;25.550;2023-03-14T07:38:47;99555.59;;;9.26;47.94
37066;BME280;22981;43.080;25.550;2023-03-14T07:41:15;99552.36;;;9.46;46.74
37066;BME280;22981;43.080;25.550;2023-03-14T07:43:43;99549.78;;;9.71;45.84
37066;BME280;22981;43.080;25.550;2023-03-14T07:46:10;99538.77;;;9.99;44.87
37066;BME280;22981;43.080;25.550;2023-03-14T07:48:38;99535.67;;;10.25;43.44
37066;BME280;22981;43.080;25.550;2023-03-14T07:51:06;99535.31;;;10.46;42.64
37066;BME280;22981;43.080;25.550;2023-03-14T07:53:34;99528.31;;;10.70;41.68
37066;BME280;22981;43.080;25.550;2023-03-14T07:56:01;99518.25;;;10.91;40.71
37066;BME280;22981;43.080;25.550;2023-03-14T07:58:29;99509.66;;;11.16;40.61
37066;BME280;22981;43.080;25.550;2023-03-14T08:00:58;99503.66;;;11.39;39.74
37066;BME280;22981;43.080;25.550;2023-03-14T08:03:26;99498.27;;;11.58;39.14
37066;BME280;22981;43.080;25.550;2023-03-14T08:05:53;99496.98;;;11.78;38.71
37066;BME280;22981;43.080;25.550;2023-03-14T08:08:21;99491.15;;;12.00;37.68
37066;BME280;22981;43.080;25.550;2023-03-14T08:10:49;99495.19;;;12.21;36.79
37066;BME280;22981;43.080;25.550;2023-03-14T08:13:16;99485.98;;;12.40;36.51
37066;BME280;22981;43.080;25.550;2023-03-14T08:15:47;99477.63;;;12.60;35.99
37066;BME280;22981;43.080;25.550;2023-03-14T08:18:14;99478.03;;;12.78;34.95
37066;BME280;22981;43.080;25.550;2023-03-14T08:20:42;99475.17;;;12.94;34.06
37066;BME280;22981;43.080;25.550;2023-03-14T08:23:09;99476.45;;;13.15;33.82
37066;BME280;22981;43.080;25.550;2023-03-14T08:25:38;99468.53;;;13.34;33.19
37066;BME280;22981;43.080;25.550;2023-03-14T08:28:05;99468.67;;;13.53;32.63
37066;BME280;22981;43.080;25.550;2023-03-14T08:30:33;99472.23;;;13.71;32.34
37066;BME280;22981;43.080;25.550;2023-03-14T08:33:00;99473.05;;;13.86;31.76
37066;BME280;22981;43.080;25.550;2023-03-14T08:35:28;99461.70;;;13.98;30.99
37066;BME280;22981;43.080;25.550;2023-03-14T08:37:56;99460.66;;;14.16;30.71
37066;BME280;22981;43.080;25.550;2023-03-14T08:40:23;99462.91;;;14.38;31.00
37066;BME280;22981;43.080;25.550;2023-03-14T08:42:51;99451.16;;;14.59;30.26
37066;BME280;22981;43.080;25.550;2023-03-14T08:45:19;99445.61;;;14.85;30.27
37066;BME280;22981;43.080;25.550;2023-03-14T08:47:46;99444.27;;;15.04;30.19
37066;BME280;22981;43.080;25.550;2023-03-14T08:50:14;99438.84;;;15.23;30.13
37066;BME280;22981;43.080;25.550;2023-03-14T08:52:41;99434.79;;;15.45;29.70
37066;BME280;22981;43.080;25.550;2023-03-14T08:55:09;99432.83;;;15.63;29.27
37066;BME280;22981;43.080;25.550;2023-03-14T08:57:37;99429.53;;;15.80;29.01
37066;BME280;22981;43.080;25.550;2023-03-14T09:00:06;99420.02;;;15.99;28.74
37066;BME280;22981;43.080;25.550;2023-03-14T09:02:42;99417.23;;;16.19;28.01
37066;BME280;22981;43.080;25.550;2023-03-14T09:05:10;99424.63;;;16.34;27.82
37066;BME280;22981;43.080;25.550;2023-03-14T09:07:38;99421.98;;;16.41;26.95
37066;BME280;22981;43.080;25.550;2023-03-14T09:10:08;99421.18;;;16.41;26.39
37066;BME280;22981;43.080;25.550;2023-03-14T09:12:36;99407.70;;;16.48;26.28
37066;BME280;22981;43.080;25.550;2023-03-14T09:15:03;99398.33;;;16.61;26.06
37066;BME280;22981;43.080;25.550;2023-03-14T09:17:31;99401.45;;;16.83;26.45
37066;BME280;22981;43.080;25.550;2023-03-14T09:19:59;99401.84;;;17.04;25.73
37066;BME280;22981;43.080;25.550;2023-03-14T09:22:26;99401.08;;;17.09;25.49
37066;BME280;22981;43.080;25.550;2023-03-14T09:24:54;99398.92;;;17.16;25.39
37066;BME280;22981;43.080;25.550;2023-03-14T09:27:21;99386.01;;;17.31;25.21
37066;BME280;22981;43.080;25.550;2023-03-14T09:29:49;99389.85;;;17.47;25.07
37066;BME280;22981;43.080;25.550;2023-03-14T09:32:16;99380.38;;;17.55;25.12
37066;BME280;22981;43.080;25.550;2023-03-14T09:34:44;99380.73;;;17.74;25.20
37066;BME280;22981;43.080;25.550;2023-03-14T09:37:12;99379.66;;;17.93;24.95
37066;BME280;22981;43.080;25.550;2023-03-14T09:39:41;99372.62;;;18.10;24.84
37066;BME280;22981;43.080;25.550;2023-03-14T09:42:13;99369.63;;;18.24;24.76
37066;BME280;22981;43.080;25.550;2023-03-14T09:45:04;99363.14;;;18.25;24.19
37066;BME280;22981;43.080;25.550;2023-03-14T09:47:12;99360.95;;;18.32;24.31
37066;BME280;22981;43.080;25.550;2023-03-14T09:49:41;99351.73;;;18.38;24.26
37066;BME280;22981;43.080;25.550;2023-03-14T09:52:14;99345.77;;;18.46;23.98
37066;BME280;22981;43.080;25.550;2023-03-14T09:54:50;99347.38;;;18.45;24.10
37066;BME280;22981;43.080;25.550;2023-03-14T09:57:20;99342.23;;;18.51;24.16
37066;BME280;22981;43.080;25.550;2023-03-14T09:59:49;99341.93;;;18.60;23.77
37066;BME280;22981;43.080;25.550;2023-03-14T10:02:22;99331.37;;;18.59;22.34
37066;BME280;22981;43.080;25.550;2023-03-14T10:04:52;99327.58;;;18.52;22.48
37066;BME280;22981;43.080;25.550;2023-03-14T10:07:31;99324.03;;;18.54;22.58
37066;BME280;22981;43.080;25.550;2023-03-14T10:10:00;99320.22;;;18.63;22.34
37066;BME280;22981;43.080;25.550;2023-03-14T10:12:35;99319.12;;;18.66;22.54
37066;BME280;22981;43.080;25.550;2023-03-14T10:15:10;99318.06;;;18.70;22.00
37066;BME280;22981;43.080;25.550;2023-03-14T10:17:49;99305.58;;;18.74;22.34
37066;BME280;22981;43.080;25.550;2023-03-14T10:20:34;99306.34;;;18.90;22.58
37066;BME280;22981;43.080;25.550;2023-03-14T10:25:48;99291.25;;;19.23;22.07
37066;BME280;22981;43.080;25.550;2023-03-14T10:28:26;99280.61;;;19.29;22.05
37066;BME280;22981;43.080;25.550;2023-03-14T10:30:55;99279.52;;;19.33;21.89
37066;BME280;22981;43.080;25.550;2023-03-14T10:33:26;99270.86;;;19.28;21.16
37066;BME280;22981;43.080;25.550;2023-03-14T10:36:00;99276.63;;;19.16;20.91
37066;BME280;22981;43.080;25.550;2023-03-14T10:38:33;99273.39;;;19.14;21.01
37066;BME280;22981;43.080;25.550;2023-03-14T10:41:03;99270.05;;;19.22;21.62
37066;BME280;22981;43.080;25.550;2023-03-14T10:43:33;99264.33;;;19.29;21.15
37066;BME280;22981;43.080;25.550;2023-03-14T10:46:14;99260.51;;;19.33;20.47
37066;BME280;22981;43.080;25.550;2023-03-14T10:48:41;99246.73;;;19.24;19.79
37066;BME280;22981;43.080;25.550;2023-03-14T10:53:56;99232.22;;;19.41;20.60
37066;BME280;22981;43.080;25.550;2023-03-14T10:56:21;99235.95;;;19.48;20.51
37066;BME280;22981;43.080;25.550;2023-03-14T10:58:51;99224.58;;;19.43;20.16
37066;BME280;22981;43.080;25.550;2023-03-14T11:04:17;99209.91;;;19.47;21.02
37066;BME280;22981;43.080;25.550;2023-03-14T11:09:33;99192.72;;;19.62;20.99
37066;BME280;22981;43.080;25.550;2023-03-14T11:12:03;99190.95;;;19.73;20.84
37066;BME280;22981;43.080;25.550;2023-03-14T11:14:34;99185.27;;;19.72;20.97
37066;BME280;22981;43.080;25.550;2023-03-14T11:22:36;99164.33;;;19.75;20.89
37066;BME280;22981;43.080;25.550;2023-03-14T11:27:45;99150.62;;;19.88;20.92
37066;BME280;22981;43.080;25.550;2023-03-14T11:35:39;99117.41;;;19.94;21.02
37066;BME280;22981;43.080;25.550;2023-03-14T11:38:13;99114.55;;;20.04;21.14
37066;BME280;22981;43.080;25.550;2023-03-14T11:40:39;99113.49;;;20.03;20.56
37066;BME280;22981;43.080;25.550;2023-03-14T11:43:37;99108.46;;;19.91;19.76
37066;BME280;22981;43.080;25.550;2023-03-14T11:45:51;99094.14;;;19.85;19.33
37066;BME280;22981;43.080;25.550;2023-03-14T11:50:59;99094.86;;;19.93;19.70
37066;BME280;22981;43.080;25.550;2023-03-14T11:56:42;99087.02;;;20.13;19.74
37066;BME280;22981;43.080;25.550;2023-03-14T12:00:00;99078.23;;;20.19;19.83
37066;BME280;22981;43.080;25.550;2023-03-14T12:01:53;99067.94;;;20.16;20.36
37066;BME280;22981;43.080;25.550;2023-03-14T12:07:08;99065.26;;;20.35;20.40
37066;BME280;22981;43.080;25.550;2023-03-14T12:09:34;99055.92;;;20.22;20.34
37066;BME280;22981;43.080;25.550;2023-03-14T12:12:04;99042.34;;;20.00;20.44
37066;BME280;22981;43.080;25.550;2023-03-14T12:14:34;99046.42;;;20.00;20.59
37066;BME280;22981;43.080;25.550;2023-03-14T12:19:41;99035.05;;;20.17;21.20
37066;BME280;22981;43.080;25.550;2023-03-14T12:22:22;99030.25;;;20.31;21.24
37066;BME280;22981;43.080;25.550;2023-03-14T12:24:52;99036.58;;;20.42;20.44
37066;BME280;22981;43.080;25.550;2023-03-14T12:30:04;99021.90;;;20.43;20.95
37066;BME280;22981;43.080;25.550;2023-03-14T12:32:33;99018.18;;;20.37;20.89
37066;BME280;22981;43.080;25.550;2023-03-14T12:35:32;99008.50;;;20.31;20.77
37066;BME280;22981;43.080;25.550;2023-03-14T12:37:36;99001.75;;;20.25;20.39
37066;BME280;22981;43.080;25.550;2023-03-14T12:40:20;99004.36;;;20.33;20.61
37066;BME280;22981;43.080;25.550;2023-03-14T12:42:59;99000.89;;;20.46;20.94
37066;BME280;22981;43.080;25.550;2023-03-14T12:45:34;98986.33;;;20.40;20.75
37066;BME280;22981;43.080;25.550;2023-03-14T12:48:20;98984.34;;;20.48;21.38
37066;BME280;22981;43.080;25.550;2023-03-14T12:50:47;98979.37;;;20.53;21.59
37066;BME280;22981;43.080;25.550;2023-03-14T12:56:41;98964.69;;;20.51;21.39
37066;BME280;22981;43.080;25.550;2023-03-14T12:59:13;98955.23;;;20.46;21.58
37066;BME280;22981;43.080;25.550;2023-03-14T13:01:45;98952.27;;;20.45;21.14
37066;BME280;22981;43.080;25.550;2023-03-14T13:04:10;98958.48;;;20.29;21.36
37066;BME280;22981;43.080;25.550;2023-03-14T13:06:53;98951.41;;;20.31;21.98
37066;BME280;22981;43.080;25.550;2023-03-14T13:12:09;98942.05;;;20.20;21.76
37066;BME280;22981;43.080;25.550;2023-03-14T13:14:45;98933.39;;;20.18;22.18
37066;BME280;22981;43.080;25.550;2023-03-14T13:17:15;98934.55;;;20.31;22.29
37066;BME280;22981;43.080;25.550;2023-03-14T13:19:44;98930.20;;;20.14;21.83
37066;BME280;22981;43.080;25.550;2023-03-14T13:22:21;98933.98;;;19.78;21.56
37066;BME280;22981;43.080;25.550;2023-03-14T13:24:46;98925.08;;;19.50;22.17
37066;BME280;22981;43.080;25.550;2023-03-14T13:27:21;98925.31;;;19.54;22.39
37066;BME280;22981;43.080;25.550;2023-03-14T13:29:50;98918.46;;;19.62;22.39
37066;BME280;22981;43.080;25.550;2023-03-14T13:32:21;98918.66;;;19.65;22.42
37066;BME280;22981;43.080;25.550;2023-03-14T13:34:49;98917.86;;;19.65;22.25
37066;BME280;22981;43.080;25.550;2023-03-14T13:37:22;98921.17;;;19.62;22.31
37066;BME280;22981;43.080;25.550;2023-03-14T13:39:55;98911.26;;;19.49;22.15
37066;BME280;22981;43.080;25.550;2023-03-14T13:42:27;98901.31;;;19.40;22.31
37066;BME280;22981;43.080;25.550;2023-03-14T13:44:56;98898.10;;;19.38;22.44
37066;BME280;22981;43.080;25.550;2023-03-14T13:47:26;98896.27;;;19.33;22.60
37066;BME280;22981;43.080;25.550;2023-03-14T13:49:54;98891.45;;;19.28;22.38
37066;BME280;22981;43.080;25.550;2023-03-14T13:52:36;98890.99;;;19.20;22.82
37066;BME280;22981;43.080;25.550;2023-03-14T13:55:02;98879.97;;;19.12;22.79
37066;BME280;22981;43.080;25.550;2023-03-14T13:57:44;98881.72;;;19.03;22.73
37066;BME280;22981;43.080;25.550;2023-03-14T14:00:21;98869.61;;;18.92;22.65
37066;BME280;22981;43.080;25.550;2023-03-14T14:02:51;98871.28;;;18.88;23.01